Pula, Chorvatsko

08:00 CEST 29. Květen 2015 (GMT +0200)
Astronomical observatory Pula | | Change Station
CLOSE
Current Station
Osobní povětrnostní stanice
Location: Pula - Istra, CROATIA
Nadmořská výška: 92 ft
Poblíž povětrnostní stanice

Výška 92 ft 44.87 °N, 13.85 °E | Updated 46 seconds ago

Clear
Jasno
67.8 °F
Pocit jako 67.8 °F
S
0.0
Vítr proměnlivý Vítr od severní
Gusts 0.0 mil/h

Dnes
Vysoké -- | Nízké -- °F
--% Možnost srážek
Včera
Vysoké -- | Nízké -- °F
Precip. -- inčů
5:23 AM 8:40 PM
Dorůstající měsíc, 81% visible
Tlak 30.01 inčů
Viditelnost -9999.0 mílí
Zataženo
Rosný bod 55 °F
Vlhkost 68%
Dešťové srážky 0.00 inčů
Sněhová pokrývka Není k dispozici
UV záření Není k dispozici
Pyl Není k dispozici
Kvalita ovzduší Není k dispozici
Flu Activity Není k dispozici
METAR LDPL 290600Z 00000KT CAVOK 18/12 Q1016 NOSIG

More Conditions Fewer Conditions

Tlak 30.01 inčů
Viditelnost -9999.0 mílí
Zataženo
Rosný bod 55 °F
Vlhkost 68%
Dešťové srážky 0.00 inčů
Sněhová pokrývka Není k dispozici
UV záření Není k dispozici
Pyl Není k dispozici
Kvalita ovzduší Není k dispozici
Flu Activity Není k dispozici
METAR LDPL 290600Z 00000KT CAVOK 18/12 Q1016 NOSIG

More Conditions Fewer Conditions

10-Day Weather Forecast

Almanac

Astronomie

May. 29, 2015 Východ Západ
Skutečný čas
Občanský soumrak
Námořní soumrak
Astronomický soumrak
Měsíc
Délka denního světla
Délka dne
Tomorrow will be .
, % of the Moon is Illuminated

Dnešní extrémy

Nejvyšší hodnoty ve státě Nejnižší hodnoty ve státě

Community

WunderPhotos

Upload Photos

1,825,215 snímků staženo!

WunderBlogs® & News

Nearby

Kvalita ovzduší

  Kvalita ovzduší Index kvality ovzduší Polutant
Not available.

Výška sněhu

Station Hloubka Nadmořská výška

Seizmická činnost

Město Distance Mag. Čas & datum
Minimální zobrazený rozsah je 2.5.

Pobřežní teplota vody

Lokalita Teplota

Stations

Poblíž povětrnostní stanice

Lokace stanice Tepl. Ochlazování větrem Rosný bod Vlhkost Vítr Precip. Výška Čas hlášení Typ